Time;durP1;ratioP1;P1;durP2;ratioP2;P2;SDS_P1;SDS_P2;PMS_P1;PMS_P2;Temp;Humidity;BMP_temperature;BMP_pressure;BME280_temperature;BME280_humidity;BME280_pressure;Samples;Min_cycle;Max_cycle;Signal;HPM_P1;HPM_P2
2021/06/23 00:01:10;;;;;;;24.75;17.85;;;16.30;99.90;;;;;;5051358;28;20025;-71
2021/06/23 00:03:35;;;;;;;25.30;17.17;;;16.20;99.90;;;;;;5048552;28;20512;-72
2021/06/23 00:06:01;;;;;;;27.70;19.23;;;16.20;99.90;;;;;;5053356;28;20378;-72
2021/06/23 00:08:27;;;;;;;23.00;17.00;;;16.20;99.90;;;;;;5050921;28;20111;-72
2021/06/23 00:10:54;;;;;;;25.33;17.90;;;16.10;99.90;;;;;;5051016;28;20496;-73
2021/06/23 00:13:20;;;;;;;29.17;18.15;;;16.10;99.90;;;;;;5052421;28;20058;-72
2021/06/23 00:15:46;;;;;;;30.88;17.77;;;16.00;99.90;;;;;;5066309;28;20027;-72
2021/06/23 00:18:12;;;;;;;20.70;15.98;;;16.00;99.90;;;;;;5052712;28;20029;-72
2021/06/23 00:20:37;;;;;;;23.33;16.80;;;16.00;99.90;;;;;;5055738;28;20021;-71
2021/06/23 00:23:04;;;;;;;29.00;19.08;;;16.10;99.90;;;;;;5048718;28;20464;-72
2021/06/23 00:25:30;;;;;;;25.15;16.92;;;16.00;99.90;;;;;;5057588;28;20029;-71
2021/06/23 00:27:56;;;;;;;22.13;16.25;;;15.90;99.90;;;;;;5068139;28;20029;-72
2021/06/23 00:30:23;;;;;;;26.42;15.93;;;15.90;99.90;;;;;;5053316;28;20033;-71
2021/06/23 00:32:50;;;;;;;23.13;16.23;;;15.90;99.90;;;;;;5059963;28;20787;-71
2021/06/23 00:35:15;;;;;;;23.60;15.63;;;15.90;99.90;;;;;;5055564;28;20036;-71
2021/06/23 00:37:41;;;;;;;27.08;15.90;;;15.80;99.90;;;;;;5049987;28;20020;-71
2021/06/23 00:40:09;;;;;;;26.23;16.83;;;15.90;99.90;;;;;;5049438;28;20021;-72
2021/06/23 00:42:35;;;;;;;26.42;15.80;;;15.90;99.90;;;;;;5050488;28;20550;-71
2021/06/23 00:45:06;;;;;;;21.80;14.32;;;15.90;99.90;;;;;;5067306;28;20033;-71
2021/06/23 00:47:32;;;;;;;26.30;16.35;;;15.80;99.90;;;;;;5055408;28;20058;-71
2021/06/23 00:50:15;;;;;;;24.73;15.55;;;15.80;99.90;;;;;;5047866;28;20037;-71
2021/06/23 00:52:49;;;;;;;24.85;16.55;;;15.80;99.90;;;;;;5053753;28;20033;-71
2021/06/23 00:55:20;;;;;;;23.10;16.67;;;15.80;99.90;;;;;;5040902;28;20029;-72
2021/06/23 00:57:49;;;;;;;24.25;17.05;;;15.80;99.90;;;;;;5049394;28;20020;-72
2021/06/23 01:00:22;;;;;;;25.48;17.17;;;15.80;99.90;;;;;;5056174;28;20736;-70
2021/06/23 01:02:47;;;;;;;;;;;15.70;99.90;;;;;;5028127;28;20497;-72
2021/06/23 01:05:14;;;;;;;20.02;14.88;;;15.80;99.90;;;;;;5048229;28;19930;-72
2021/06/23 01:07:41;;;;;;;26.92;16.98;;;15.80;99.90;;;;;;5048103;28;20031;-71
2021/06/23 01:10:07;;;;;;;23.02;16.90;;;15.80;99.90;;;;;;5046339;28;20174;-72
2021/06/23 01:12:54;;;;;;;26.50;16.25;;;15.80;99.90;;;;;;5048446;28;20098;-71
2021/06/23 01:15:19;;;;;;;24.85;15.68;;;15.80;99.90;;;;;;5046906;28;20496;-72
2021/06/23 01:17:48;;;;;;;20.33;14.43;;;15.70;99.90;;;;;;5044514;28;20103;-71
2021/06/23 01:20:14;;;;;;;27.15;17.20;;;15.70;99.90;;;;;;5049566;28;20116;-71
2021/06/23 01:22:42;;;;;;;26.42;16.08;;;15.60;99.90;;;;;;5051726;28;20032;-72
2021/06/23 01:25:11;;;;;;;23.10;14.77;;;15.70;99.90;;;;;;5051017;28;20075;-71
2021/06/23 01:27:41;;;;;;;25.25;16.27;;;15.70;99.90;;;;;;5051493;28;20033;-71
2021/06/23 01:30:09;;;;;;;19.38;14.18;;;15.80;99.90;;;;;;5047097;28;20024;-71
2021/06/23 01:32:34;;;;;;;26.50;16.65;;;15.70;99.90;;;;;;5050282;28;20035;-72
2021/06/23 01:35:01;;;;;;;28.05;15.88;;;15.70;99.90;;;;;;5043279;28;20592;-71
2021/06/23 01:37:27;;;;;;;25.98;15.52;;;15.70;99.90;;;;;;5052189;28;20021;-73
2021/06/23 01:39:58;;;;;;;28.38;17.20;;;15.60;99.90;;;;;;5050916;28;20025;-72
2021/06/23 01:42:24;;;;;;;26.33;17.05;;;15.60;99.90;;;;;;5060835;28;20078;-71
2021/06/23 01:44:49;;;;;;;22.08;15.13;;;15.60;99.90;;;;;;5062493;28;20025;-71
2021/06/23 01:47:16;;;;;;;21.00;15.27;;;15.70;99.90;;;;;;5060823;28;20029;-72
2021/06/23 01:49:48;;;;;;;23.17;14.68;;;15.70;99.90;;;;;;5059312;28;20484;-72
2021/06/23 01:52:15;;;;;;;25.60;16.15;;;15.70;99.90;;;;;;5059701;28;20044;-71
2021/06/23 01:54:44;;;;;;;26.95;17.13;;;15.70;99.90;;;;;;5048816;28;20060;-71
2021/06/23 01:57:11;;;;;;;21.85;15.15;;;15.70;99.90;;;;;;5058216;28;20108;-71
2021/06/23 01:59:38;;;;;;;24.80;16.13;;;15.90;99.90;;;;;;5055640;28;20044;-71
2021/06/23 02:02:06;;;;;;;27.02;16.48;;;15.90;99.90;;;;;;5061461;28;20028;-71
2021/06/23 02:04:31;;;;;;;22.73;15.00;;;16.00;99.90;;;;;;5053307;28;20055;-71
2021/06/23 02:07:16;;;;;;;22.63;15.25;;;15.90;99.90;;;;;;5057449;28;20020;-71
2021/06/23 02:09:50;;;;;;;25.52;16.67;;;15.90;99.90;;;;;;5052887;28;20098;-72
2021/06/23 02:12:24;;;;;;;22.63;16.50;;;15.90;99.90;;;;;;5057013;28;20485;-72
2021/06/23 02:14:53;;;;;;;22.35;16.27;;;15.80;99.90;;;;;;5057639;28;20016;-71
2021/06/23 02:17:22;;;;;;;24.58;15.70;;;15.90;99.90;;;;;;5062463;28;20024;-72
2021/06/23 02:19:50;;;;;;;25.13;17.85;;;15.80;99.90;;;;;;5059022;28;20037;-72
2021/06/23 02:22:27;;;;;;;22.67;15.10;;;15.80;99.90;;;;;;5060489;28;20137;-71
2021/06/23 02:25:06;;;;;;;25.15;15.43;;;15.80;99.90;;;;;;5056948;28;20021;-72
2021/06/23 02:27:32;;;;;;;19.15;15.32;;;15.70;99.90;;;;;;5064112;28;20021;-71
2021/06/23 02:29:57;;;;;;;27.98;16.25;;;15.70;99.90;;;;;;5060527;28;20054;-72
2021/06/23 02:32:27;;;;;;;22.38;14.95;;;15.70;99.90;;;;;;5055506;28;20056;-71
2021/06/23 02:34:55;;;;;;;24.65;16.00;;;15.50;99.90;;;;;;5056142;28;20473;-71
2021/06/23 02:37:23;;;;;;;26.02;16.58;;;15.50;99.90;;;;;;5056865;28;20025;-72
2021/06/23 02:39:49;;;;;;;25.92;15.77;;;15.50;99.90;;;;;;5054675;28;20781;-71
2021/06/23 02:42:15;;;;;;;24.50;17.75;;;15.50;99.90;;;;;;5060816;28;20033;-71
2021/06/23 02:44:41;;;;;;;28.17;16.88;;;15.40;99.90;;;;;;5063453;28;20368;-71
2021/06/23 02:47:07;;;;;;;28.60;16.83;;;15.40;99.90;;;;;;5057866;28;20465;-71
2021/06/23 02:49:34;;;;;;;25.77;16.80;;;15.40;99.90;;;;;;5070931;28;20021;-71
2021/06/23 02:52:00;;;;;;;27.23;17.55;;;15.50;99.90;;;;;;5055453;28;20037;-71
2021/06/23 02:54:26;;;;;;;28.73;17.00;;;15.40;99.90;;;;;;5056614;28;20042;-71
2021/06/23 02:56:53;;;;;;;28.42;16.95;;;15.40;99.90;;;;;;5059339;28;20100;-71
2021/06/23 02:59:19;;;;;;;29.80;17.55;;;15.50;99.90;;;;;;5049390;28;20032;-71
2021/06/23 03:01:46;;;;;;;27.83;16.67;;;15.30;99.90;;;;;;5059347;28;20523;-71
2021/06/23 03:04:12;;;;;;;24.25;16.38;;;15.30;99.90;;;;;;5062363;28;20037;-71
2021/06/23 03:06:38;;;;;;;25.63;15.52;;;15.40;99.90;;;;;;5059630;28;20054;-71
2021/06/23 03:09:04;;;;;;;31.23;17.23;;;15.50;99.90;;;;;;5055433;28;20108;-71
2021/06/23 03:11:38;;;;;;;25.02;16.85;;;15.40;99.90;;;;;;5063007;28;20013;-71
2021/06/23 03:14:05;;;;;;;24.38;17.58;;;15.40;99.90;;;;;;5057984;28;20135;-71
2021/06/23 03:16:31;;;;;;;24.95;16.75;;;15.40;99.90;;;;;;5057749;28;20032;-71
2021/06/23 03:18:57;;;;;;;29.77;19.23;;;15.30;99.90;;;;;;5051471;28;20035;-71
2021/06/23 03:21:23;;;;;;;24.25;17.25;;;15.30;99.90;;;;;;5058154;28;20691;-71
2021/06/23 03:23:50;;;;;;;30.23;18.25;;;15.40;99.90;;;;;;5053539;28;20036;-71
2021/06/23 03:26:17;;;;;;;35.85;17.63;;;15.30;99.90;;;;;;5055909;28;20063;-72
2021/06/23 03:28:42;;;;;;;24.48;17.13;;;15.40;99.90;;;;;;5054139;28;20028;-72
2021/06/23 03:31:09;;;;;;;30.73;17.13;;;15.30;99.90;;;;;;5059416;28;20069;-72
2021/06/23 03:33:34;;;;;;;24.02;16.30;;;15.20;99.90;;;;;;5057072;28;20021;-71
2021/06/23 03:36:00;;;;;;;27.08;16.20;;;15.20;99.90;;;;;;5060397;28;20048;-72
2021/06/23 03:38:25;;;;;;;25.67;17.52;;;15.20;99.90;;;;;;5047743;28;20048;-72
2021/06/23 03:40:51;;;;;;;28.10;17.23;;;15.20;99.90;;;;;;5058929;28;20501;-71
2021/06/23 03:43:19;;;;;;;22.77;16.95;;;15.20;99.90;;;;;;5062104;28;20291;-71
2021/06/23 03:45:46;;;;;;;24.27;18.45;;;15.10;99.90;;;;;;5062770;28;20020;-70
2021/06/23 03:48:12;;;;;;;23.63;17.42;;;15.20;99.90;;;;;;5055314;28;20025;-71
2021/06/23 03:50:38;;;;;;;25.88;16.38;;;15.20;99.90;;;;;;5055012;28;20017;-72
2021/06/23 03:53:04;;;;;;;25.48;15.73;;;15.20;99.90;;;;;;5060437;28;20123;-71
2021/06/23 03:55:31;;;;;;;30.02;16.77;;;15.20;99.90;;;;;;5061809;28;20078;-71
2021/06/23 03:57:57;;;;;;;28.30;17.33;;;15.20;99.90;;;;;;5051980;28;20035;-71
2021/06/23 04:00:26;;;;;;;21.42;15.63;;;15.20;99.90;;;;;;5054877;28;20099;-72
2021/06/23 04:02:52;;;;;;;23.70;16.25;;;15.20;99.90;;;;;;5057392;28;20029;-71
2021/06/23 04:05:17;;;;;;;26.27;15.88;;;15.20;99.90;;;;;;5054796;28;20032;-71
2021/06/23 04:07:43;;;;;;;32.70;17.00;;;15.30;99.90;;;;;;5059150;28;20496;-72
2021/06/23 04:10:12;;;;;;;27.60;17.17;;;15.30;99.90;;;;;;5054222;28;20108;-72
2021/06/23 04:12:38;;;;;;;31.25;18.75;;;15.30;99.90;;;;;;5052282;28;20056;-71
2021/06/23 04:15:10;;;;;;;27.15;18.30;;;15.30;99.90;;;;;;5059874;28;20048;-71
2021/06/23 04:17:36;;;;;;;26.25;17.30;;;15.40;99.90;;;;;;5056671;28;20025;-72
2021/06/23 04:20:04;;;;;;;29.38;18.02;;;15.30;99.90;;;;;;5050264;28;20083;-71
2021/06/23 04:22:29;;;;;;;27.00;18.13;;;15.40;99.90;;;;;;5060020;28;20119;-71
2021/06/23 04:24:55;;;;;;;31.58;19.17;;;15.40;99.90;;;;;;5052424;28;20369;-72
2021/06/23 04:27:21;;;;;;;30.58;19.40;;;15.40;99.90;;;;;;5044252;28;20112;-71
2021/06/23 04:29:47;;;;;;;26.15;17.67;;;15.30;99.90;;;;;;5071033;28;20036;-71
2021/06/23 04:32:12;;;;;;;27.40;18.50;;;15.30;99.90;;;;;;5064732;28;20037;-72
2021/06/23 04:34:38;;;;;;;29.48;18.30;;;15.40;99.90;;;;;;5054988;28;20040;-72
2021/06/23 04:37:04;;;;;;;26.00;19.15;;;15.40;99.90;;;;;;5060072;28;20032;-71
2021/06/23 04:39:29;;;;;;;30.27;17.92;;;15.40;99.90;;;;;;5058203;28;20115;-72
2021/06/23 04:41:55;;;;;;;30.02;18.40;;;15.40;99.90;;;;;;5060037;28;20474;-71
2021/06/23 04:44:20;;;;;;;33.20;18.30;;;15.40;99.90;;;;;;5077414;28;20044;-72
2021/06/23 04:46:46;;;;;;;27.33;18.55;;;15.50;99.90;;;;;;5062154;28;20024;-71
2021/06/23 04:49:12;;;;;;;28.23;19.17;;;15.50;99.90;;;;;;5074662;28;20373;-71
2021/06/23 04:51:38;;;;;;;25.88;18.13;;;15.50;99.90;;;;;;5058897;28;20031;-71
2021/06/23 04:54:03;;;;;;;27.20;17.95;;;15.40;99.90;;;;;;5065281;28;20025;-72
2021/06/23 04:56:29;;;;;;;28.92;17.92;;;15.40;99.90;;;;;;5064540;28;20115;-72
2021/06/23 04:58:54;;;;;;;30.27;18.55;;;15.30;99.90;;;;;;5052852;28;20033;-71
2021/06/23 05:01:20;;;;;;;29.27;17.10;;;15.40;99.90;;;;;;5058264;28;20021;-72
2021/06/23 05:03:45;;;;;;;31.45;17.52;;;15.30;99.90;;;;;;5066473;28;20040;-72
2021/06/23 05:06:11;;;;;;;31.00;17.60;;;15.30;99.90;;;;;;5065103;28;20489;-71
2021/06/23 05:08:37;;;;;;;31.52;17.88;;;15.40;99.90;;;;;;5058759;28;20110;-71
2021/06/23 05:11:02;;;;;;;29.77;18.00;;;15.50;99.90;;;;;;5066230;28;20021;-71
2021/06/23 05:13:28;;;;;;;21.98;15.93;;;15.50;99.90;;;;;;5065711;28;20100;-75
2021/06/23 05:15:56;;;;;;;28.83;17.70;;;15.40;99.90;;;;;;5054039;28;20032;-71
2021/06/23 05:18:22;;;;;;;28.95;16.98;;;15.40;99.90;;;;;;5056526;28;20029;-71
2021/06/23 05:20:48;;;;;;;27.55;17.13;;;15.40;99.90;;;;;;5056456;28;20037;-71
2021/06/23 05:23:13;;;;;;;28.92;17.17;;;15.40;99.90;;;;;;5052658;28;20055;-71
2021/06/23 05:25:39;;;;;;;26.70;17.13;;;15.40;99.90;;;;;;5060087;28;20032;-71
2021/06/23 05:28:05;;;;;;;29.33;17.83;;;15.40;99.90;;;;;;5055100;28;20025;-71
2021/06/23 05:30:30;;;;;;;22.58;16.00;;;15.50;99.90;;;;;;5060425;28;20032;-71
2021/06/23 05:32:56;;;;;;;26.60;15.32;;;15.50;99.90;;;;;;5060256;28;20576;-71
2021/06/23 05:35:22;;;;;;;23.13;15.02;;;15.60;99.90;;;;;;5055813;28;20026;-71
2021/06/23 05:37:48;;;;;;;20.58;15.85;;;15.60;99.90;;;;;;5062344;28;20024;-71
2021/06/23 05:40:14;;;;;;;26.70;17.05;;;15.50;99.90;;;;;;5055562;28;20025;-71
2021/06/23 05:42:40;;;;;;;26.55;15.00;;;15.60;99.90;;;;;;5063681;28;20416;-71
2021/06/23 05:45:06;;;;;;;29.80;16.00;;;15.50;99.90;;;;;;5056888;28;20037;-71
2021/06/23 05:47:32;;;;;;;28.60;16.38;;;15.50;99.90;;;;;;5049265;28;20040;-71
2021/06/23 05:49:58;;;;;;;28.75;16.83;;;15.60;99.90;;;;;;5062707;28;20037;-71
2021/06/23 05:52:23;;;;;;;26.85;16.58;;;15.60;99.90;;;;;;5066351;28;20032;-71
2021/06/23 05:54:49;;;;;;;29.00;17.83;;;15.70;99.90;;;;;;5064224;28;20025;-72
2021/06/23 05:57:15;;;;;;;35.15;16.95;;;15.60;99.90;;;;;;5058980;28;20055;-72
2021/06/23 05:59:40;;;;;;;23.77;15.85;;;15.70;99.90;;;;;;5063878;28;20051;-71
2021/06/23 06:02:07;;;;;;;27.55;16.83;;;15.70;99.90;;;;;;5054692;28;20032;-72
2021/06/23 06:04:32;;;;;;;25.38;14.95;;;15.70;99.90;;;;;;5049517;28;20416;-71
2021/06/23 06:06:58;;;;;;;24.90;16.10;;;15.70;99.90;;;;;;5047404;28;20025;-70
2021/06/23 06:09:23;;;;;;;27.38;15.80;;;15.70;99.90;;;;;;5052830;28;20021;-71
2021/06/23 06:11:49;;;;;;;27.10;16.30;;;15.70;99.90;;;;;;5053623;28;20477;-70
2021/06/23 06:14:14;;;;;;;21.77;16.08;;;15.60;99.90;;;;;;5051785;28;20075;-71
2021/06/23 06:16:40;;;;;;;26.33;15.48;;;15.80;99.90;;;;;;5052071;28;20531;-71
2021/06/23 06:19:06;;;;;;;21.52;15.35;;;15.70;99.90;;;;;;5048167;28;20025;-71
2021/06/23 06:21:31;;;;;;;23.45;14.27;;;15.80;99.90;;;;;;5053201;28;20033;-71
2021/06/23 06:23:57;;;;;;;27.38;16.25;;;15.80;99.90;;;;;;5065160;28;20488;-71
2021/06/23 06:26:23;;;;;;;27.20;16.40;;;15.80;99.90;;;;;;5052157;28;20028;-71
2021/06/23 06:28:48;;;;;;;24.27;16.40;;;15.90;99.90;;;;;;5059138;28;20037;-71
2021/06/23 06:31:14;;;;;;;28.92;15.40;;;15.80;99.90;;;;;;5057045;28;20025;-71
2021/06/23 06:33:39;;;;;;;35.95;16.77;;;15.80;99.90;;;;;;5051613;28;20549;-71
2021/06/23 06:36:05;;;;;;;28.65;16.48;;;15.90;99.90;;;;;;5068119;28;20039;-71
2021/06/23 06:38:31;;;;;;;24.98;16.33;;;15.90;99.90;;;;;;5058165;28;20032;-71
2021/06/23 06:40:57;;;;;;;29.45;16.75;;;15.80;99.90;;;;;;5061497;28;20078;-71
2021/06/23 06:43:22;;;;;;;28.65;16.38;;;15.80;99.90;;;;;;5060374;28;20403;-71
2021/06/23 06:45:50;;;;;;;27.58;15.98;;;15.80;99.90;;;;;;5057312;28;20036;-71
2021/06/23 06:48:18;;;;;;;31.15;15.88;;;15.80;99.90;;;;;;5055219;28;20048;-70
2021/06/23 06:50:44;;;;;;;26.70;16.55;;;15.70;99.90;;;;;;5052979;28;20021;-70
2021/06/23 06:53:09;;;;;;;22.40;16.15;;;15.70;99.90;;;;;;5059624;28;20397;-71
2021/06/23 06:55:35;;;;;;;30.42;16.10;;;15.70;99.90;;;;;;5065612;28;20393;-71
2021/06/23 06:58:01;;;;;;;24.85;15.20;;;15.80;99.90;;;;;;5052195;28;20035;-71
2021/06/23 07:00:26;;;;;;;26.38;15.98;;;15.70;99.90;;;;;;5046777;28;20100;-71
2021/06/23 07:02:54;;;;;;;24.00;15.50;;;15.80;99.90;;;;;;5056976;28;20048;-72
2021/06/23 07:05:20;;;;;;;27.27;15.02;;;15.80;99.90;;;;;;5053501;28;20395;-71
2021/06/23 07:07:45;;;;;;;28.73;15.23;;;15.80;99.90;;;;;;5057444;28;20482;-71
2021/06/23 07:10:11;;;;;;;21.77;15.77;;;15.90;99.90;;;;;;5058684;28;20040;-71
2021/06/23 07:12:37;;;;;;;18.00;14.57;;;16.00;99.90;;;;;;5053092;28;20108;-71
2021/06/23 07:15:03;;;;;;;21.42;14.95;;;15.90;99.90;;;;;;5057916;28;20511;-71
2021/06/23 07:17:29;;;;;;;30.38;15.43;;;15.90;99.90;;;;;;5051518;28;20547;-71
2021/06/23 07:19:55;;;;;;;23.30;14.93;;;15.90;99.90;;;;;;5052442;28;20071;-71
2021/06/23 07:22:22;;;;;;;24.95;15.35;;;15.90;99.90;;;;;;5053515;28;20489;-71
2021/06/23 07:24:47;;;;;;;24.42;14.70;;;15.90;99.90;;;;;;5061011;28;20043;-71
2021/06/23 07:27:13;;;;;;;20.83;14.13;;;15.90;99.90;;;;;;5058484;28;20021;-71
2021/06/23 07:29:38;;;;;;;25.95;15.52;;;15.90;99.90;;;;;;5056744;28;20029;-71
2021/06/23 07:32:15;;;;;;;27.55;15.98;;;15.90;99.90;;;;;;5062224;28;20473;-71
2021/06/23 07:37:13;;;;;;;21.63;14.18;;;15.90;99.90;;;;;;5053559;28;20033;-71
2021/06/23 07:39:39;;;;;;;26.65;15.32;;;15.90;99.90;;;;;;5056208;28;20016;-71
2021/06/23 07:42:06;;;;;;;24.00;14.43;;;15.90;99.90;;;;;;5053227;28;20025;-70
2021/06/23 07:44:48;;;;;;;28.17;15.85;;;15.90;99.90;;;;;;5054459;28;20029;-71
2021/06/23 07:47:20;;;;;;;22.80;14.57;;;16.00;99.90;;;;;;5057491;28;20067;-71
2021/06/23 07:49:46;;;;;;;28.88;16.90;;;15.90;99.90;;;;;;5054572;28;20021;-71
2021/06/23 08:09:18;;;;;;;24.42;15.73;;;15.80;99.90;;;;;;5054701;28;20040;-71
2021/06/23 08:11:28;;;;;;;26.33;15.45;;;15.80;99.90;;;;;;5052611;28;20021;-72
2021/06/23 08:13:54;;;;;;;27.88;15.32;;;15.90;99.90;;;;;;5058820;28;20063;-71
2021/06/23 08:16:19;;;;;;;30.13;16.55;;;15.80;99.90;;;;;;5059306;28;20176;-71
2021/06/23 08:18:45;;;;;;;27.98;16.60;;;15.90;99.90;;;;;;5055624;28;20573;-71
2021/06/23 08:21:11;;;;;;;23.27;14.85;;;16.00;99.90;;;;;;5056033;28;20082;-71
2021/06/23 08:23:36;;;;;;;23.30;15.35;;;16.10;99.90;;;;;;5057191;28;20112;-72
2021/06/23 08:26:02;;;;;;;26.00;14.38;;;16.10;99.90;;;;;;5056738;28;20032;-72
2021/06/23 08:28:28;;;;;;;25.13;14.00;;;16.10;99.90;;;;;;5051908;28;20047;-72
2021/06/23 08:30:54;;;;;;;20.40;13.80;;;16.20;99.90;;;;;;5066151;28;20047;-71
2021/06/23 08:33:24;;;;;;;22.33;14.00;;;16.20;99.90;;;;;;5055380;28;20188;-72
2021/06/23 08:35:51;;;;;;;20.10;14.57;;;16.30;99.90;;;;;;5050332;28;20025;-71
2021/06/23 08:38:16;;;;;;;24.20;13.60;;;16.30;99.90;;;;;;5056988;28;20695;-72
2021/06/23 08:40:43;;;;;;;25.58;14.77;;;16.30;99.90;;;;;;5059547;28;20029;-72
2021/06/23 08:43:13;;;;;;;25.15;15.20;;;16.40;99.90;;;;;;5065143;28;20029;-73
2021/06/23 08:45:39;;;;;;;23.48;14.80;;;16.30;99.90;;;;;;5060519;28;20021;-72
2021/06/23 08:48:05;;;;;;;23.42;14.55;;;16.30;99.90;;;;;;5067221;28;20487;-71
2021/06/23 08:50:30;;;;;;;18.70;13.57;;;16.40;99.90;;;;;;5057704;28;20024;-72
2021/06/23 08:52:56;;;;;;;26.67;12.15;;;16.30;99.90;;;;;;5066109;28;20033;-72
2021/06/23 08:55:22;;;;;;;23.95;14.35;;;16.30;99.90;;;;;;5054953;28;20546;-72
2021/06/23 08:57:50;;;;;;;26.10;12.65;;;16.40;99.90;;;;;;5071416;28;20120;-72
2021/06/23 09:00:17;;;;;;;20.63;12.95;;;16.50;99.90;;;;;;5056233;28;20036;-72
2021/06/23 09:02:44;;;;;;;22.25;11.90;;;16.40;99.90;;;;;;5059600;28;20037;-72
2021/06/23 09:05:12;;;;;;;23.83;11.40;;;16.40;99.90;;;;;;5051773;28;20486;-72
2021/06/23 09:07:52;;;;;;;23.45;11.43;;;16.50;99.90;;;;;;5063178;28;20146;-72
2021/06/23 09:10:21;;;;;;;24.40;12.25;;;16.50;99.90;;;;;;5064871;28;20040;-72
2021/06/23 09:13:13;;;;;;;17.67;10.93;;;16.60;99.90;;;;;;5064532;28;20546;-72
2021/06/23 09:15:50;;;;;;;18.92;9.80;;;16.60;99.90;;;;;;5067266;28;20028;-72
2021/06/23 09:18:28;;;;;;;20.70;10.23;;;16.70;99.90;;;;;;5060996;28;20493;-72
2021/06/23 09:20:58;;;;;;;15.23;8.93;;;16.70;99.90;;;;;;5053879;28;20040;-72
2021/06/23 09:23:54;;;;;;;18.17;9.32;;;16.70;99.90;;;;;;5056474;28;20109;-72
2021/06/23 09:26:36;;;;;;;21.15;9.00;;;16.70;99.90;;;;;;5052947;28;20032;-72
2021/06/23 09:29:05;;;;;;;15.50;7.65;;;16.80;99.90;;;;;;5055920;28;20029;-72
2021/06/23 09:31:49;;;;;;;12.93;8.15;;;16.80;99.90;;;;;;5057745;28;20040;-72
2021/06/23 09:34:42;;;;;;;19.60;9.23;;;16.90;99.90;;;;;;5051068;28;20482;-72
2021/06/23 09:37:28;;;;;;;15.75;8.43;;;16.90;99.90;;;;;;5054395;28;20033;-71
2021/06/23 09:40:20;;;;;;;15.43;8.10;;;17.00;99.90;;;;;;5051834;28;20370;-72
2021/06/23 09:42:53;;;;;;;14.95;7.50;;;17.10;99.90;;;;;;5053681;28;20095;-72
2021/06/23 09:45:19;;;;;;;18.42;7.95;;;17.20;99.90;;;;;;5050208;28;20388;-72
2021/06/23 09:47:46;;;;;;;12.23;6.95;;;17.10;99.90;;;;;;5049392;28;20029;-72
2021/06/23 09:50:24;;;;;;;18.63;7.50;;;17.20;99.90;;;;;;5055619;28;20037;-71
2021/06/23 09:52:55;;;;;;;13.38;7.07;;;17.20;99.90;;;;;;5054671;28;20044;-72
2021/06/23 09:55:36;;;;;;;19.60;7.00;;;17.30;99.90;;;;;;5046355;28;20021;-72
2021/06/23 09:58:09;;;;;;;14.77;6.97;;;17.40;99.90;;;;;;5053031;28;20484;-71
2021/06/23 10:00:57;;;;;;;13.57;7.15;;;17.40;99.90;;;;;;5053004;28;20099;-71
2021/06/23 10:03:24;;;;;;;16.50;7.18;;;17.50;99.90;;;;;;5055756;28;20036;-77
2021/06/23 10:05:50;;;;;;;15.40;6.82;;;17.40;99.90;;;;;;5053647;28;20083;-72
2021/06/23 10:08:23;;;;;;;18.20;6.05;;;17.40;99.90;;;;;;5055311;28;20029;-72
2021/06/23 10:10:50;;;;;;;11.93;5.70;;;17.40;99.90;;;;;;5052286;28;20033;-72
2021/06/23 10:13:17;;;;;;;12.18;6.15;;;17.40;99.90;;;;;;5050335;28;20025;-71
2021/06/23 10:15:44;;;;;;;13.65;5.97;;;17.40;99.90;;;;;;5058746;28;20119;-71
2021/06/23 10:18:09;;;;;;;14.18;6.00;;;17.40;99.90;;;;;;5057191;28;20025;-71
2021/06/23 10:20:35;;;;;;;15.82;6.45;;;17.30;99.90;;;;;;5049921;28;20382;-72
2021/06/23 10:23:05;;;;;;;14.93;7.15;;;17.40;99.90;;;;;;5053280;28;20240;-71
2021/06/23 10:25:31;;;;;;;12.45;6.68;;;17.40;99.90;;;;;;5056698;28;20033;-71
2021/06/23 10:27:59;;;;;;;13.00;6.93;;;17.40;99.90;;;;;;5055850;28;20079;-71
2021/06/23 10:30:29;;;;;;;14.23;6.90;;;17.40;99.90;;;;;;5054576;28;20071;-71
2021/06/23 10:32:56;;;;;;;16.20;7.40;;;17.40;99.90;;;;;;5054667;28;20101;-71
2021/06/23 10:35:22;;;;;;;14.25;6.80;;;17.30;99.90;;;;;;5063945;28;20037;-71
2021/06/23 10:37:49;;;;;;;11.85;7.22;;;17.30;99.90;;;;;;5059005;28;20682;-72
2021/06/23 10:40:17;;;;;;;13.55;7.95;;;17.30;99.90;;;;;;5064112;28;20040;-71
2021/06/23 10:42:43;;;;;;;16.25;7.15;;;17.30;99.90;;;;;;5051114;28;20057;-71
2021/06/23 10:45:10;;;;;;;17.55;7.97;;;17.30;99.90;;;;;;5058270;28;20091;-71
2021/06/23 10:47:47;;;;;;;20.35;8.52;;;17.20;99.90;;;;;;5057168;28;20025;-70
2021/06/23 10:50:31;;;;;;;12.18;8.45;;;17.20;99.90;;;;;;5045643;28;20112;-71
2021/06/23 10:52:56;;;;;;;13.27;8.27;;;17.30;99.90;;;;;;5048593;28;20102;-71
2021/06/23 10:55:22;;;;;;;16.42;7.95;;;17.50;99.90;;;;;;5045426;28;20477;-72
2021/06/23 10:57:50;;;;;;;14.80;7.95;;;17.50;99.90;;;;;;5048790;28;20035;-72
2021/06/23 11:00:23;;;;;;;15.00;7.65;;;17.60;99.90;;;;;;5054239;28;20083;-72
2021/06/23 11:02:58;;;;;;;13.30;8.35;;;17.60;99.90;;;;;;5064005;28;20040;-72
2021/06/23 11:05:23;;;;;;;14.05;7.65;;;17.60;99.90;;;;;;5050522;28;20025;-72
2021/06/23 11:07:55;;;;;;;22.73;8.52;;;17.70;99.90;;;;;;5053050;28;20377;-71
2021/06/23 11:10:33;;;;;;;16.10;7.95;;;17.70;99.90;;;;;;5047946;28;20028;-71
2021/06/23 11:13:08;;;;;;;22.70;8.27;;;17.80;99.90;;;;;;5042631;28;20020;-71
2021/06/23 11:15:45;;;;;;;12.30;7.38;;;17.90;99.90;;;;;;5050857;28;20044;-72
2021/06/23 11:18:34;;;;;;;13.57;7.57;;;18.00;99.90;;;;;;5050456;28;20538;-72
2021/06/23 11:21:06;;;;;;;17.60;8.77;;;18.00;99.90;;;;;;5051247;28;20112;-72
2021/06/23 11:23:50;;;;;;;17.75;8.88;;;18.10;99.90;;;;;;5051701;28;20045;-72
2021/06/23 11:26:20;;;;;;;18.02;8.07;;;18.20;99.90;;;;;;5051954;28;20029;-72
2021/06/23 11:28:52;;;;;;;19.58;8.07;;;18.30;99.90;;;;;;5057455;28;20028;-72
2021/06/23 11:31:19;;;;;;;;;;;18.30;99.90;;;;;;5052392;28;20097;-72
2021/06/23 11:33:50;;;;;;;18.83;8.77;;;18.30;99.90;;;;;;5048836;28;20415;-73
2021/06/23 11:36:20;;;;;;;13.18;7.88;;;18.40;99.90;;;;;;5044548;28;20020;-72
2021/06/23 11:38:47;;;;;;;13.13;8.13;;;18.50;99.90;;;;;;5043812;28;20444;-72
2021/06/23 11:41:15;;;;;;;18.58;8.52;;;18.50;99.90;;;;;;5045330;28;20044;-72
2021/06/23 11:43:41;;;;;;;21.63;8.30;;;18.50;99.90;;;;;;5041443;28;20111;-72
2021/06/23 11:46:06;;;;;;;20.13;9.10;;;18.50;99.90;;;;;;5042971;28;20067;-72
2021/06/23 11:48:34;;;;;;;17.40;9.32;;;18.50;99.90;;;;;;5045628;28;20765;-74
2021/06/23 11:50:59;;;;;;;17.40;9.68;;;18.60;99.90;;;;;;5045289;28;20024;-72
2021/06/23 11:53:25;;;;;;;17.02;9.13;;;18.60;99.90;;;;;;5049619;28;20037;-72
2021/06/23 11:55:52;;;;;;;16.63;8.82;;;18.80;99.90;;;;;;5060825;28;20025;-72
2021/06/23 11:58:18;;;;;;;17.73;8.52;;;18.90;99.90;;;;;;5058223;28;20515;-72
2021/06/23 12:00:45;;;;;;;17.35;8.68;;;18.90;99.90;;;;;;5052629;28;20029;-74
2021/06/23 12:03:12;;;;;;;16.77;9.55;;;18.90;99.90;;;;;;5050226;28;20075;-72
2021/06/23 12:05:38;;;;;;;15.07;9.50;;;18.90;99.90;;;;;;5061301;28;20041;-74
2021/06/23 12:08:05;;;;;;;14.80;10.70;;;18.90;99.90;;;;;;5058509;28;20064;-74
2021/06/23 12:10:32;;;;;;;20.00;11.25;;;18.90;99.90;;;;;;5056425;28;20075;-73
2021/06/23 12:12:59;;;;;;;16.58;10.80;;;18.90;99.90;;;;;;5057972;28;20092;-72
2021/06/23 12:15:26;;;;;;;23.58;10.10;;;18.90;99.90;;;;;;5053872;28;20025;-72
2021/06/23 12:17:57;;;;;;;22.10;10.00;;;19.00;99.90;;;;;;5056846;28;20028;-71
2021/06/23 12:20:25;;;;;;;15.63;10.43;;;18.90;99.90;;;;;;5048436;28;20057;-72
2021/06/23 12:22:56;;;;;;;18.27;9.93;;;19.00;99.90;;;;;;5055213;28;20036;-72
2021/06/23 12:25:24;;;;;;;20.63;10.32;;;18.80;99.90;;;;;;5054317;28;20086;-72
2021/06/23 12:27:52;;;;;;;18.13;10.48;;;18.80;99.90;;;;;;5051759;28;20064;-71
2021/06/23 12:30:18;;;;;;;16.58;10.20;;;18.60;99.90;;;;;;5057369;28;20308;-72
2021/06/23 12:32:44;;;;;;;15.23;9.95;;;18.60;99.90;;;;;;5054310;28;20033;-72
2021/06/23 12:35:10;;;;;;;18.55;9.68;;;18.60;99.90;;;;;;5064532;28;20025;-72
2021/06/23 12:37:36;;;;;;;17.95;10.77;;;18.60;99.90;;;;;;5061876;28;20028;-72
2021/06/23 12:40:02;;;;;;;14.88;10.40;;;18.70;99.90;;;;;;5059887;28;20024;-71
2021/06/23 12:42:28;;;;;;;20.75;10.73;;;18.70;99.90;;;;;;5061680;28;20039;-72
2021/06/23 12:45:22;;;;;;;16.00;9.68;;;18.80;99.90;;;;;;5054051;28;20033;-72
2021/06/23 12:47:47;;;;;;;16.23;10.07;;;18.90;99.90;;;;;;5057491;28;20541;-71
2021/06/23 12:50:17;;;;;;;16.20;9.48;;;19.00;99.90;;;;;;5052249;28;20132;-71
2021/06/23 12:52:47;;;;;;;16.95;10.15;;;19.10;99.90;;;;;;5049862;28;20056;-71
2021/06/23 12:55:16;;;;;;;13.98;8.55;;;19.00;99.90;;;;;;5047537;28;20076;-71